Sunny Acres, Indiana
Current Conditions -  °F | °C
As of 1:54 AM on Thursday 27 Nov 2014 (Local Time) from KFWA Reporting Station
Overcast Overcast  
Wind Chill: 21°   Ceiling: 3100
Heat Index: 28°   Visibility: 8mi
Dew Point: 22°   Wind: 7mph
Humidity: 78%   Direction: 330°NNW
Pressure: 30.12"   Gusts: NA
Location:  40.8317°N, 84.9398°W
Report Text: KFWA 270654Z 33006KT 8SM OVC031 M02/M06 A3012 RMK AO2 SLP209 T10221056
Loading
Personal Weather Stations






























Interactive Weather Map New forecast layout! Learn more

10-Day Weather Forecast

Advertisements
Track Severe Weather on mobile